Mount Air, Ohio
Current Conditions -  °F | °C
As of 6:53 AM on Friday 31 Oct 2014 (Local Time) from KOSU Reporting Station
Broken Clouds Broken Clouds  
Wind Chill: 39°   Ceiling: 5000
Heat Index: 43°   Visibility: 10mi
Dew Point: 35°   Wind: 7mph
Humidity: 74%   Direction: 200°SSW
Pressure: 29.96"   Gusts: NA
Location:  40.0994°N, 83.0166°W
Report Text: KOSU 311053Z 20006KT 10SM SCT045 BKN050 BKN085 06/02 A2996 RMK AO2 SLP150 T00610017
Loading
Personal Weather Stations






























Interactive Weather Map
Tropical Storm Tracking
New forecast layout! Learn more

10-Day Weather Forecast

Advertisements
Track Severe Weather on mobile